Hancock County-Bar Harbor Airport Bar Harbor US
ICAO: KBHB
IATA: BHB
Category: Medium
Scheduled Services: Yes

Elevation: 83 ft
TransAlt. 18000 ft.

Airport Communications:
BANGOR APP/DEP:124.5
AWOS 3:118.025
CLNC DEL:119.9
CTAF/UNICOM:123

KBHB Zoom In..

Runways:

(A) RW 04 length 5200 ft width 100 ft
---- / hdg 44

(B) RW 17 length 3253 ft width 75 ft
---- / hdg 169

(C) RW 22 length 5200 ft width 100 ft
ILS 108.30 / hdg 224

(D) RW 35 length 3253 ft width 75 ft
---- / hdg 349

Location; KBHB
Day. 16 / Time. 17.56 Zulu
* Altimeter: 29.99
* Temperature: 23° c. 73.4°f.
* Wind from: 200° Speed 12 kn.
Dewpoint: 19° c.
Visibility: 10 Statute Miles.
Clouds: Clear (automated report).

KBHB 161756Z AUTO 20012KT 10SM CLR 23/19 A2999 RMK AO2 SLP157 T02330189 10250 20189 55006 $


Wind From 200°
Speed 12 kn.

 
 
jpsmedia.com for Web Design worldairports.se 2018   terms of use